sensor_id;sensor_type;location;lat;lon;timestamp;pressure;altitude;pressure_sealevel;temperature;humidity
69247;BME280;56358;56.328;43.992;2023-07-24T00:00:55;99788.72;;;16.08;75.19
69247;BME280;56358;56.328;43.992;2023-07-24T00:02:55;99789.56;;;16.09;75.11
69247;BME280;56358;56.328;43.992;2023-07-24T00:04:56;99805.09;;;16.15;74.78
69247;BME280;56358;56.328;43.992;2023-07-24T00:06:57;99773.66;;;16.06;75.17
69247;BME280;56358;56.328;43.992;2023-07-24T00:08:58;99774.19;;;16.09;74.87
69247;BME280;56358;56.328;43.992;2023-07-24T00:10:59;99786.84;;;16.17;74.91
69247;BME280;56358;56.328;43.992;2023-07-24T00:13:00;99794.44;;;16.14;74.69
69247;BME280;56358;56.328;43.992;2023-07-24T00:15:01;99732.00;;;15.84;74.20
69247;BME280;56358;56.328;43.992;2023-07-24T00:17:07;99779.75;;;16.16;74.23
69247;BME280;56358;56.328;43.992;2023-07-24T00:19:08;99767.97;;;16.01;73.99
69247;BME280;56358;56.328;43.992;2023-07-24T00:21:09;99790.22;;;16.11;73.95
69247;BME280;56358;56.328;43.992;2023-07-24T00:23:11;99790.56;;;16.16;74.01
69247;BME280;56358;56.328;43.992;2023-07-24T00:25:11;99781.44;;;16.17;74.01
69247;BME280;56358;56.328;43.992;2023-07-24T00:27:12;99786.47;;;16.20;73.71
69247;BME280;56358;56.328;43.992;2023-07-24T00:29:14;99787.00;;;16.24;73.65
69247;BME280;56358;56.328;43.992;2023-07-24T00:31:15;99788.50;;;16.27;73.09
69247;BME280;56358;56.328;43.992;2023-07-24T00:33:15;99746.81;;;16.04;72.51
69247;BME280;56358;56.328;43.992;2023-07-24T00:35:16;99786.63;;;16.27;72.76
69247;BME280;56358;56.328;43.992;2023-07-24T00:37:17;99789.16;;;16.29;72.26
69247;BME280;56358;56.328;43.992;2023-07-24T00:39:17;99784.63;;;16.29;72.64
69247;BME280;56358;56.328;43.992;2023-07-24T00:41:18;99778.34;;;16.29;72.46
69247;BME280;56358;56.328;43.992;2023-07-24T00:43:19;99736.31;;;16.09;72.37
69247;BME280;56358;56.328;43.992;2023-07-24T00:45:21;99695.69;;;15.86;72.38
69247;BME280;56358;56.328;43.992;2023-07-24T00:47:22;99771.75;;;16.31;72.49
69247;BME280;56358;56.328;43.992;2023-07-24T00:49:25;99754.91;;;16.21;72.19
69247;BME280;56358;56.328;43.992;2023-07-24T00:51:27;99778.53;;;16.27;72.22
69247;BME280;56358;56.328;43.992;2023-07-24T00:53:28;99692.97;;;15.78;72.47
69247;BME280;56358;56.328;43.992;2023-07-24T00:55:29;99767.38;;;16.22;72.27
69247;BME280;56358;56.328;43.992;2023-07-24T00:57:30;99749.19;;;16.07;72.75
69247;BME280;56358;56.328;43.992;2023-07-24T00:59:32;99760.63;;;16.18;72.45
69247;BME280;56358;56.328;43.992;2023-07-24T01:01:33;99759.81;;;16.17;72.73
69247;BME280;56358;56.328;43.992;2023-07-24T01:03:35;99778.38;;;16.20;72.55
69247;BME280;56358;56.328;43.992;2023-07-24T01:05:35;99756.94;;;16.11;72.28
69247;BME280;56358;56.328;43.992;2023-07-24T01:07:36;99735.69;;;15.91;72.63
69247;BME280;56358;56.328;43.992;2023-07-24T01:09:37;99785.84;;;16.10;72.50
69247;BME280;56358;56.328;43.992;2023-07-24T01:14:21;99774.00;;;16.11;72.60
69247;BME280;56358;56.328;43.992;2023-07-24T01:16:26;99762.84;;;16.06;72.69
69247;BME280;56358;56.328;43.992;2023-07-24T01:18:33;99758.16;;;16.00;72.98
69247;BME280;56358;56.328;43.992;2023-07-24T01:20:41;99777.06;;;16.08;72.45
69247;BME280;56358;56.328;43.992;2023-07-24T01:25:18;99767.06;;;16.08;72.76
69247;BME280;56358;56.328;43.992;2023-07-24T01:27:24;99781.47;;;16.09;72.79
69247;BME280;56358;56.328;43.992;2023-07-24T01:29:24;99771.47;;;16.09;72.75
69247;BME280;56358;56.328;43.992;2023-07-24T01:31:25;99761.69;;;16.00;72.77
69247;BME280;56358;56.328;43.992;2023-07-24T01:33:26;99765.75;;;16.04;72.71
69247;BME280;56358;56.328;43.992;2023-07-24T01:35:27;99738.56;;;15.98;72.86
69247;BME280;56358;56.328;43.992;2023-07-24T01:37:28;99763.91;;;16.05;72.64
69247;BME280;56358;56.328;43.992;2023-07-24T01:39:29;99771.28;;;16.11;72.80
69247;BME280;56358;56.328;43.992;2023-07-24T01:41:30;99763.88;;;16.13;72.50
69247;BME280;56358;56.328;43.992;2023-07-24T01:43:31;99766.41;;;16.15;72.77
69247;BME280;56358;56.328;43.992;2023-07-24T01:45:35;99757.59;;;16.13;72.52
69247;BME280;56358;56.328;43.992;2023-07-24T01:47:36;99763.16;;;16.19;72.44
69247;BME280;56358;56.328;43.992;2023-07-24T01:49:37;99754.91;;;16.13;72.56
69247;BME280;56358;56.328;43.992;2023-07-24T01:51:38;99764.16;;;16.27;72.63
69247;BME280;56358;56.328;43.992;2023-07-24T01:53:38;99760.94;;;16.31;72.30
69247;BME280;56358;56.328;43.992;2023-07-24T01:55:39;99755.84;;;16.36;72.24
69247;BME280;56358;56.328;43.992;2023-07-24T01:57:40;99742.34;;;16.28;72.31
69247;BME280;56358;56.328;43.992;2023-07-24T01:59:40;99766.47;;;16.38;72.21
69247;BME280;56358;56.328;43.992;2023-07-24T02:01:41;99758.19;;;16.39;72.14
69247;BME280;56358;56.328;43.992;2023-07-24T02:03:42;99770.00;;;16.47;72.35
69247;BME280;56358;56.328;43.992;2023-07-24T02:05:49;99790.28;;;16.51;72.16
69247;BME280;56358;56.328;43.992;2023-07-24T02:07:51;99699.00;;;16.05;71.91
69247;BME280;56358;56.328;43.992;2023-07-24T02:09:51;99768.09;;;16.55;72.18
69247;BME280;56358;56.328;43.992;2023-07-24T02:11:52;99758.66;;;16.51;72.17
69247;BME280;56358;56.328;43.992;2023-07-24T02:13:53;99766.25;;;16.56;72.29
69247;BME280;56358;56.328;43.992;2023-07-24T02:15:54;99738.47;;;16.31;71.88
69247;BME280;56358;56.328;43.992;2023-07-24T02:17:55;99778.59;;;16.58;72.45
69247;BME280;56358;56.328;43.992;2023-07-24T02:19:56;99768.41;;;16.61;72.50
69247;BME280;56358;56.328;43.992;2023-07-24T02:21:57;99768.41;;;16.61;72.54
69247;BME280;56358;56.328;43.992;2023-07-24T02:23:57;99771.97;;;16.61;72.39
69247;BME280;56358;56.328;43.992;2023-07-24T02:25:58;99771.97;;;16.61;72.43
69247;BME280;56358;56.328;43.992;2023-07-24T02:27:59;99778.22;;;16.62;72.41
69247;BME280;56358;56.328;43.992;2023-07-24T02:30:00;99781.75;;;16.62;72.75
69247;BME280;56358;56.328;43.992;2023-07-24T02:32:01;99784.66;;;16.61;72.89
69247;BME280;56358;56.328;43.992;2023-07-24T02:34:02;99753.41;;;16.50;72.74
69247;BME280;56358;56.328;43.992;2023-07-24T02:36:03;99792.25;;;16.65;72.96
69247;BME280;56358;56.328;43.992;2023-07-24T02:38:04;99779.91;;;16.63;72.76
69247;BME280;56358;56.328;43.992;2023-07-24T02:40:05;99780.78;;;16.55;73.27
69247;BME280;56358;56.328;43.992;2023-07-24T02:42:07;99716.00;;;16.22;73.09
69247;BME280;56358;56.328;43.992;2023-07-24T02:44:08;99790.38;;;16.66;73.15
69247;BME280;56358;56.328;43.992;2023-07-24T02:46:09;99790.19;;;16.67;72.87
69247;BME280;56358;56.328;43.992;2023-07-24T02:48:09;99780.75;;;16.63;73.22
69247;BME280;56358;56.328;43.992;2023-07-24T02:50:10;99791.91;;;16.68;73.12
69247;BME280;56358;56.328;43.992;2023-07-24T02:52:11;99779.41;;;16.59;73.37
69247;BME280;56358;56.328;43.992;2023-07-24T02:54:11;99790.88;;;16.69;73.20
69247;BME280;56358;56.328;43.992;2023-07-24T02:56:12;99775.19;;;16.56;73.43
69247;BME280;56358;56.328;43.992;2023-07-24T02:58:13;99774.69;;;16.53;73.78
69247;BME280;56358;56.328;43.992;2023-07-24T03:00:14;99780.59;;;16.56;73.46
69247;BME280;56358;56.328;43.992;2023-07-24T03:02:15;99768.69;;;16.42;73.86
69247;BME280;56358;56.328;43.992;2023-07-24T03:04:15;99795.47;;;16.61;73.96
69247;BME280;56358;56.328;43.992;2023-07-24T03:06:16;99788.38;;;16.59;74.08
69247;BME280;56358;56.328;43.992;2023-07-24T03:08:17;99787.03;;;16.64;73.70
69247;BME280;56358;56.328;43.992;2023-07-24T03:10:18;99787.69;;;16.66;73.72
69247;BME280;56358;56.328;43.992;2023-07-24T03:12:20;99789.56;;;16.65;74.04
69247;BME280;56358;56.328;43.992;2023-07-24T03:14:21;99786.84;;;16.65;73.85
69247;BME280;56358;56.328;43.992;2023-07-24T03:16:21;99794.25;;;16.71;73.74
69247;BME280;56358;56.328;43.992;2023-07-24T03:18:22;99790.34;;;16.74;73.50
69247;BME280;56358;56.328;43.992;2023-07-24T03:20:23;99727.28;;;16.34;73.75
69247;BME280;56358;56.328;43.992;2023-07-24T03:22:23;99803.69;;;16.84;73.80
69247;BME280;56358;56.328;43.992;2023-07-24T03:24:24;99792.84;;;16.84;73.66
69247;BME280;56358;56.328;43.992;2023-07-24T03:26:25;99796.38;;;16.92;73.66
69247;BME280;56358;56.328;43.992;2023-07-24T03:28:25;99801.78;;;16.92;73.36
69247;BME280;56358;56.328;43.992;2023-07-24T03:30:27;99796.38;;;16.92;73.32
69247;BME280;56358;56.328;43.992;2023-07-24T03:32:28;99807.19;;;16.92;73.67
69247;BME280;56358;56.328;43.992;2023-07-24T03:34:28;99803.28;;;16.95;73.35
69247;BME280;56358;56.328;43.992;2023-07-24T03:36:29;99798.91;;;16.94;73.50
69247;BME280;56358;56.328;43.992;2023-07-24T03:38:30;99794.47;;;17.01;73.44
69247;BME280;56358;56.328;43.992;2023-07-24T03:40:31;99788.44;;;17.14;73.32
69247;BME280;56358;56.328;43.992;2023-07-24T03:42:31;99769.91;;;17.03;72.93
69247;BME280;56358;56.328;43.992;2023-07-24T03:44:32;99749.31;;;16.94;72.35
69247;BME280;56358;56.328;43.992;2023-07-24T03:46:33;99753.47;;;17.04;72.45
69247;BME280;56358;56.328;43.992;2023-07-24T03:48:34;99800.22;;;17.30;72.04
69247;BME280;56358;56.328;43.992;2023-07-24T03:50:38;99791.66;;;17.18;72.50
69247;BME280;56358;56.328;43.992;2023-07-24T03:52:38;99803.44;;;17.25;72.74
69247;BME280;56358;56.328;43.992;2023-07-24T03:54:39;99796.81;;;17.28;72.61
69247;BME280;56358;56.328;43.992;2023-07-24T03:56:40;99794.97;;;17.28;72.53
69247;BME280;56358;56.328;43.992;2023-07-24T03:58:40;99796.81;;;17.28;72.40
69247;BME280;56358;56.328;43.992;2023-07-24T04:00:41;99800.53;;;17.26;72.58
69247;BME280;56358;56.328;43.992;2023-07-24T04:02:42;99787.56;;;17.22;72.47
69247;BME280;56358;56.328;43.992;2023-07-24T04:04:43;99788.88;;;17.26;72.53
69247;BME280;56358;56.328;43.992;2023-07-24T04:06:45;99775.59;;;17.16;72.81
69247;BME280;56358;56.328;43.992;2023-07-24T04:08:46;99760.78;;;17.04;72.72
69247;BME280;56358;56.328;43.992;2023-07-24T04:10:46;99798.75;;;17.19;72.86
69247;BME280;56358;56.328;43.992;2023-07-24T04:12:47;99798.94;;;17.17;72.79
69247;BME280;56358;56.328;43.992;2023-07-24T04:14:48;99797.25;;;17.16;73.41
69247;BME280;56358;56.328;43.992;2023-07-24T04:16:49;99720.34;;;16.71;73.06
69247;BME280;56358;56.328;43.992;2023-07-24T04:18:50;99797.56;;;17.21;73.05
69247;BME280;56358;56.328;43.992;2023-07-24T04:20:50;99808.16;;;17.31;73.02
69247;BME280;56358;56.328;43.992;2023-07-24T04:22:51;99809.09;;;17.38;72.70
69247;BME280;56358;56.328;43.992;2023-07-24T04:24:52;99807.44;;;17.37;72.33
69247;BME280;56358;56.328;43.992;2023-07-24T04:26:52;99811.34;;;17.35;72.12
69247;BME280;56358;56.328;43.992;2023-07-24T04:28:53;99803.09;;;17.28;72.33
69247;BME280;56358;56.328;43.992;2023-07-24T04:30:54;99815.44;;;17.31;72.63
69247;BME280;56358;56.328;43.992;2023-07-24T04:32:54;99781.06;;;17.08;72.92
69247;BME280;56358;56.328;43.992;2023-07-24T04:34:55;99794.53;;;17.16;72.65
69247;BME280;56358;56.328;43.992;2023-07-24T04:36:56;99790.00;;;17.08;72.87
69247;BME280;56358;56.328;43.992;2023-07-24T04:38:56;99815.84;;;17.19;72.72
69247;BME280;56358;56.328;43.992;2023-07-24T04:41:00;99817.47;;;17.05;72.90
69247;BME280;56358;56.328;43.992;2023-07-24T04:43:01;99755.19;;;16.66;72.69
69247;BME280;56358;56.328;43.992;2023-07-24T04:45:02;99817.00;;;16.94;73.03
69247;BME280;56358;56.328;43.992;2023-07-24T04:47:06;99814.84;;;16.81;73.63
69247;BME280;56358;56.328;43.992;2023-07-24T04:49:07;99764.28;;;16.41;73.99
69247;BME280;56358;56.328;43.992;2023-07-24T04:51:08;99829.88;;;16.83;73.91
69247;BME280;56358;56.328;43.992;2023-07-24T04:53:08;99812.00;;;16.74;74.29
69247;BME280;56358;56.328;43.992;2023-07-24T04:55:09;99816.78;;;16.64;74.31
69247;BME280;56358;56.328;43.992;2023-07-24T04:57:10;99831.06;;;16.81;74.46
69247;BME280;56358;56.328;43.992;2023-07-24T04:59:10;99827.03;;;16.76;74.33
69247;BME280;56358;56.328;43.992;2023-07-24T05:01:11;99806.13;;;16.62;74.33
69247;BME280;56358;56.328;43.992;2023-07-24T05:03:12;99812.16;;;16.72;74.59
69247;BME280;56358;56.328;43.992;2023-07-24T05:05:12;99818.91;;;16.76;74.47
69247;BME280;56358;56.328;43.992;2023-07-24T05:07:13;99763.31;;;16.34;74.73
69247;BME280;56358;56.328;43.992;2023-07-24T05:09:14;99826.97;;;16.53;75.23
69247;BME280;56358;56.328;43.992;2023-07-24T05:11:15;99770.44;;;16.19;75.22
69247;BME280;56358;56.328;43.992;2023-07-24T05:13:15;99823.94;;;16.48;75.44
69247;BME280;56358;56.328;43.992;2023-07-24T05:15:16;99792.56;;;16.22;75.40
69247;BME280;56358;56.328;43.992;2023-07-24T05:17:18;99794.13;;;16.17;75.47
69247;BME280;56358;56.328;43.992;2023-07-24T05:19:18;99854.72;;;16.47;75.79
69247;BME280;56358;56.328;43.992;2023-07-24T05:21:19;99836.97;;;16.45;75.58
69247;BME280;56358;56.328;43.992;2023-07-24T05:23:20;99848.13;;;16.41;75.22
69247;BME280;56358;56.328;43.992;2023-07-24T05:25:21;99847.63;;;16.38;75.27
69247;BME280;56358;56.328;43.992;2023-07-24T05:27:21;99852.06;;;16.31;75.60
69247;BME280;56358;56.328;43.992;2023-07-24T05:29:22;99827.88;;;16.29;74.70
69247;BME280;56358;56.328;43.992;2023-07-24T05:31:23;99798.00;;;16.14;74.39
69247;BME280;56358;56.328;43.992;2023-07-24T05:33:23;99826.16;;;16.36;74.04
69247;BME280;56358;56.328;43.992;2023-07-24T05:35:24;99835.88;;;16.62;73.85
69247;BME280;56358;56.328;43.992;2023-07-24T05:37:25;99825.06;;;16.70;72.80
69247;BME280;56358;56.328;43.992;2023-07-24T05:39:26;99834.94;;;16.86;71.86
69247;BME280;56358;56.328;43.992;2023-07-24T05:41:26;99823.91;;;17.04;71.09
69247;BME280;56358;56.328;43.992;2023-07-24T05:43:27;99830.19;;;17.28;70.46
69247;BME280;56358;56.328;43.992;2023-07-24T05:45:28;99831.56;;;17.47;69.55
69247;BME280;56358;56.328;43.992;2023-07-24T05:47:29;99825.25;;;17.55;68.60
69247;BME280;56358;56.328;43.992;2023-07-24T05:49:30;99812.97;;;17.67;67.93
69247;BME280;56358;56.328;43.992;2023-07-24T05:51:30;99817.59;;;17.82;67.38
69247;BME280;56358;56.328;43.992;2023-07-24T05:53:31;99826.41;;;17.99;65.64
69247;BME280;56358;56.328;43.992;2023-07-24T05:55:32;99839.16;;;17.98;65.05
69247;BME280;56358;56.328;43.992;2023-07-24T05:57:32;99841.28;;;18.03;65.02
69247;BME280;56358;56.328;43.992;2023-07-24T05:59:33;99842.41;;;17.93;65.04
69247;BME280;56358;56.328;43.992;2023-07-24T06:01:34;99838.25;;;18.06;65.14
69247;BME280;56358;56.328;43.992;2023-07-24T06:03:34;99826.59;;;17.97;64.55
69247;BME280;56358;56.328;43.992;2023-07-24T06:05:35;99842.06;;;18.12;63.84
69247;BME280;56358;56.328;43.992;2023-07-24T06:07:35;99842.38;;;18.17;63.46
69247;BME280;56358;56.328;43.992;2023-07-24T06:09:36;99834.69;;;18.20;63.16
69247;BME280;56358;56.328;43.992;2023-07-24T06:11:37;99835.06;;;18.32;62.98
69247;BME280;56358;56.328;43.992;2023-07-24T06:13:38;99839.84;;;18.45;62.46
69247;BME280;56358;56.328;43.992;2023-07-24T06:15:38;99767.34;;;18.24;62.13
69247;BME280;56358;56.328;43.992;2023-07-24T06:17:39;99842.00;;;18.80;61.93
69247;BME280;56358;56.328;43.992;2023-07-24T06:19:40;99823.75;;;18.88;61.71
69247;BME280;56358;56.328;43.992;2023-07-24T06:21:40;99843.59;;;19.04;60.53
69247;BME280;56358;56.328;43.992;2023-07-24T06:23:41;99845.91;;;19.07;60.38
69247;BME280;56358;56.328;43.992;2023-07-24T06:25:42;99824.22;;;18.92;60.40
69247;BME280;56358;56.328;43.992;2023-07-24T06:27:43;99829.66;;;18.92;60.41
69247;BME280;56358;56.328;43.992;2023-07-24T06:29:43;99821.50;;;18.92;60.64
69247;BME280;56358;56.328;43.992;2023-07-24T06:31:44;99818.41;;;18.95;60.21
69247;BME280;56358;56.328;43.992;2023-07-24T06:33:45;99776.63;;;18.81;59.96
69247;BME280;56358;56.328;43.992;2023-07-24T06:35:45;99832.56;;;19.27;59.39
69247;BME280;56358;56.328;43.992;2023-07-24T06:37:46;99849.47;;;19.44;59.28
69247;BME280;56358;56.328;43.992;2023-07-24T06:39:47;99853.34;;;19.56;58.22
69247;BME280;56358;56.328;43.992;2023-07-24T06:41:47;99847.41;;;19.68;58.07
69247;BME280;56358;56.328;43.992;2023-07-24T06:43:49;99851.84;;;19.75;58.02
69247;BME280;56358;56.328;43.992;2023-07-24T06:45:50;99850.28;;;19.81;58.05
69247;BME280;56358;56.328;43.992;2023-07-24T06:47:50;99841.91;;;19.83;57.26
69247;BME280;56358;56.328;43.992;2023-07-24T06:49:52;99845.47;;;19.83;57.14
69247;BME280;56358;56.328;43.992;2023-07-24T06:51:53;99846.81;;;19.94;56.50
69247;BME280;56358;56.328;43.992;2023-07-24T06:53:53;99854.78;;;19.96;56.81
69247;BME280;56358;56.328;43.992;2023-07-24T06:55:54;99853.88;;;19.88;56.66
69247;BME280;56358;56.328;43.992;2023-07-24T06:57:55;99855.56;;;19.89;56.99
69247;BME280;56358;56.328;43.992;2023-07-24T06:59:55;99840.03;;;19.83;57.58
69247;BME280;56358;56.328;43.992;2023-07-24T07:01:56;99851.03;;;19.97;57.01
69247;BME280;56358;56.328;43.992;2023-07-24T07:03:57;99861.66;;;19.91;56.65
69247;BME280;56358;56.328;43.992;2023-07-24T07:06:01;99842.94;;;19.82;56.46
69247;BME280;56358;56.328;43.992;2023-07-24T07:08:03;99780.84;;;19.42;56.76
69247;BME280;56358;56.328;43.992;2023-07-24T07:10:04;99855.03;;;19.79;56.49
69247;BME280;56358;56.328;43.992;2023-07-24T07:12:06;99844.75;;;19.74;56.93
69247;BME280;56358;56.328;43.992;2023-07-24T07:14:07;99860.56;;;19.86;57.31
69247;BME280;56358;56.328;43.992;2023-07-24T07:16:09;99841.97;;;19.89;57.01
69247;BME280;56358;56.328;43.992;2023-07-24T07:18:10;99853.50;;;19.91;56.58
69247;BME280;56358;56.328;43.992;2023-07-24T07:20:10;99857.28;;;19.97;56.57
69247;BME280;56358;56.328;43.992;2023-07-24T07:22:11;99838.19;;;19.90;56.49
69247;BME280;56358;56.328;43.992;2023-07-24T07:24:12;99800.31;;;19.67;56.55
69247;BME280;56358;56.328;43.992;2023-07-24T07:26:12;99852.63;;;20.13;56.46
69247;BME280;56358;56.328;43.992;2023-07-24T07:28:14;99851.19;;;20.17;56.22
69247;BME280;56358;56.328;43.992;2023-07-24T07:30:15;99853.59;;;20.05;56.16
69247;BME280;56358;56.328;43.992;2023-07-24T07:32:16;99845.06;;;20.08;56.34
69247;BME280;56358;56.328;43.992;2023-07-24T07:34:17;99783.84;;;19.75;56.46
69247;BME280;56358;56.328;43.992;2023-07-24T07:36:18;99838.06;;;20.27;55.72
69247;BME280;56358;56.328;43.992;2023-07-24T07:38:18;99840.50;;;20.50;54.75
69247;BME280;56358;56.328;43.992;2023-07-24T07:40:19;99824.66;;;20.60;54.53
69247;BME280;56358;56.328;43.992;2023-07-24T07:42:20;99774.44;;;20.28;54.05
69247;BME280;56358;56.328;43.992;2023-07-24T07:44:20;99767.09;;;20.29;53.82
69247;BME280;56358;56.328;43.992;2023-07-24T07:46:21;99807.28;;;20.62;53.62
69247;BME280;56358;56.328;43.992;2023-07-24T07:48:22;99826.50;;;20.88;53.05
69247;BME280;56358;56.328;43.992;2023-07-24T07:50:23;99826.97;;;21.05;52.36
69247;BME280;56358;56.328;43.992;2023-07-24T07:52:23;99823.41;;;21.05;52.39
69247;BME280;56358;56.328;43.992;2023-07-24T07:54:24;99827.63;;;21.14;52.01
69247;BME280;56358;56.328;43.992;2023-07-24T07:56:25;99819.22;;;21.09;52.12
69247;BME280;56358;56.328;43.992;2023-07-24T07:58:25;99833.34;;;21.26;52.17
69247;BME280;56358;56.328;43.992;2023-07-24T08:00:26;99834.59;;;21.23;50.43
69247;BME280;56358;56.328;43.992;2023-07-24T08:02:27;99824.50;;;21.17;50.77
69247;BME280;56358;56.328;43.992;2023-07-24T08:04:27;99829.75;;;21.25;51.00
69247;BME280;56358;56.328;43.992;2023-07-24T08:06:28;99807.94;;;21.25;51.39
69247;BME280;56358;56.328;43.992;2023-07-24T08:08:29;99839.44;;;21.41;51.34
69247;BME280;56358;56.328;43.992;2023-07-24T08:10:29;99827.28;;;21.44;51.86
69247;BME280;56358;56.328;43.992;2023-07-24T08:12:30;99801.25;;;21.28;51.77
69247;BME280;56358;56.328;43.992;2023-07-24T08:14:31;99804.19;;;21.26;51.84
69247;BME280;56358;56.328;43.992;2023-07-24T08:16:31;99819.72;;;21.26;51.38
69247;BME280;56358;56.328;43.992;2023-07-24T08:18:32;99816.78;;;21.34;49.66
69247;BME280;56358;56.328;43.992;2023-07-24T08:20:35;99814.09;;;21.48;48.86
69247;BME280;56358;56.328;43.992;2023-07-24T08:22:37;99781.09;;;21.16;48.59
69247;BME280;56358;56.328;43.992;2023-07-24T08:24:38;99817.81;;;21.33;48.19
69247;BME280;56358;56.328;43.992;2023-07-24T08:26:38;99816.75;;;21.21;48.05
69247;BME280;56358;56.328;43.992;2023-07-24T08:28:39;99822.41;;;21.13;48.57
69247;BME280;56358;56.328;43.992;2023-07-24T08:30:42;99779.94;;;20.76;49.08
69247;BME280;56358;56.328;43.992;2023-07-24T08:32:43;99826.56;;;21.08;48.28
69247;BME280;56358;56.328;43.992;2023-07-24T08:34:43;99808.81;;;21.26;47.46
69247;BME280;56358;56.328;43.992;2023-07-24T08:36:44;99811.78;;;21.38;46.29
69247;BME280;56358;56.328;43.992;2023-07-24T08:38:45;99808.88;;;21.66;45.43
69247;BME280;56358;56.328;43.992;2023-07-24T08:40:45;99821.06;;;21.90;44.97
69247;BME280;56358;56.328;43.992;2023-07-24T08:42:48;99816.44;;;22.04;44.49
69247;BME280;56358;56.328;43.992;2023-07-24T08:44:50;99815.56;;;22.24;43.74
69247;BME280;56358;56.328;43.992;2023-07-24T08:46:52;99805.50;;;22.18;44.34
69247;BME280;56358;56.328;43.992;2023-07-24T08:48:54;99764.34;;;22.13;43.38
69247;BME280;56358;56.328;43.992;2023-07-24T08:50:56;99823.56;;;22.25;43.17
69247;BME280;56358;56.328;43.992;2023-07-24T08:52:58;99814.09;;;22.21;43.16
69247;BME280;56358;56.328;43.992;2023-07-24T08:55:01;99805.69;;;22.30;43.00
69247;BME280;56358;56.328;43.992;2023-07-24T08:57:06;99807.16;;;22.46;42.83
69247;BME280;56358;56.328;43.992;2023-07-24T08:59:08;99802.28;;;22.54;42.94
69247;BME280;56358;56.328;43.992;2023-07-24T09:01:09;99810.03;;;22.71;43.41
69247;BME280;56358;56.328;43.992;2023-07-24T09:03:10;99756.50;;;22.50;43.13
69247;BME280;56358;56.328;43.992;2023-07-24T09:05:11;99772.31;;;22.86;42.36
69247;BME280;56358;56.328;43.992;2023-07-24T09:07:13;99787.78;;;23.06;42.21
69247;BME280;56358;56.328;43.992;2023-07-24T09:09:15;99804.31;;;23.24;41.96
69247;BME280;56358;56.328;43.992;2023-07-24T09:11:16;99804.25;;;23.38;41.48
69247;BME280;56358;56.328;43.992;2023-07-24T09:13:17;99807.56;;;23.40;40.90
69247;BME280;56358;56.328;43.992;2023-07-24T09:15:18;99743.53;;;22.84;41.57
69247;BME280;56358;56.328;43.992;2023-07-24T09:17:18;99800.97;;;23.22;41.94
69247;BME280;56358;56.328;43.992;2023-07-24T09:19:19;99803.88;;;23.27;41.35
69247;BME280;56358;56.328;43.992;2023-07-24T09:21:30;99788.38;;;23.08;40.44
69247;BME280;56358;56.328;43.992;2023-07-24T09:23:31;99797.47;;;23.02;41.34
69247;BME280;56358;56.328;43.992;2023-07-24T09:25:33;99792.72;;;23.29;40.80
69247;BME280;56358;56.328;43.992;2023-07-24T09:27:34;99796.53;;;23.53;41.03
69247;BME280;56358;56.328;43.992;2023-07-24T09:29:35;99794.22;;;23.82;41.06
69247;BME280;56358;56.328;43.992;2023-07-24T09:31:36;99796.22;;;24.19;40.49
69247;BME280;56358;56.328;43.992;2023-07-24T09:33:39;99803.63;;;24.18;40.44
69247;BME280;56358;56.328;43.992;2023-07-24T09:35:40;99793.81;;;23.79;39.92
69247;BME280;56358;56.328;43.992;2023-07-24T09:37:41;99802.31;;;23.70;40.82
69247;BME280;56358;56.328;43.992;2023-07-24T09:39:42;99789.31;;;23.66;41.08
69247;BME280;56358;56.328;43.992;2023-07-24T09:41:46;99793.94;;;23.65;41.78
69247;BME280;56358;56.328;43.992;2023-07-24T09:43:58;99696.56;;;23.00;42.34
69247;BME280;56358;56.328;43.992;2023-07-24T09:45:59;99787.81;;;23.70;42.11
69247;BME280;56358;56.328;43.992;2023-07-24T09:48:00;99793.56;;;24.31;40.89
69247;BME280;56358;56.328;43.992;2023-07-24T09:50:04;99786.69;;;24.65;39.58
69247;BME280;56358;56.328;43.992;2023-07-24T09:52:09;99657.34;;;23.89;39.69
69247;BME280;56358;56.328;43.992;2023-07-24T09:54:15;99787.28;;;24.49;40.13
69247;BME280;56358;56.328;43.992;2023-07-24T09:56:20;99784.06;;;24.15;40.39
69247;BME280;56358;56.328;43.992;2023-07-24T09:58:24;99786.84;;;24.08;40.66
69247;BME280;56358;56.328;43.992;2023-07-24T10:00:25;99772.63;;;23.99;40.82
69247;BME280;56358;56.328;43.992;2023-07-24T10:02:26;99769.22;;;24.04;40.18
69247;BME280;56358;56.328;43.992;2023-07-24T10:04:28;99771.59;;;24.56;39.10
69247;BME280;56358;56.328;43.992;2023-07-24T10:06:29;99779.66;;;24.51;39.63
69247;BME280;56358;56.328;43.992;2023-07-24T10:08:30;99734.38;;;24.48;39.23
69247;BME280;56358;56.328;43.992;2023-07-24T10:10:31;99773.22;;;25.43;39.05
69247;BME280;56358;56.328;43.992;2023-07-24T10:12:33;99722.66;;;25.86;37.63
69247;BME280;56358;56.328;43.992;2023-07-24T10:14:35;99763.06;;;26.74;35.83
69247;BME280;56358;56.328;43.992;2023-07-24T10:16:37;99769.09;;;27.17;34.91
69247;BME280;56358;56.328;43.992;2023-07-24T10:18:45;99776.94;;;26.55;36.38
69247;BME280;56358;56.328;43.992;2023-07-24T10:20:46;99726.13;;;25.93;36.73
69247;BME280;56358;56.328;43.992;2023-07-24T10:22:47;99758.31;;;25.74;37.24
69247;BME280;56358;56.328;43.992;2023-07-24T10:24:47;99762.91;;;25.38;38.42
69247;BME280;56358;56.328;43.992;2023-07-24T10:26:48;99762.94;;;25.08;38.82
69247;BME280;56358;56.328;43.992;2023-07-24T10:28:50;99776.72;;;24.71;39.53
69247;BME280;56358;56.328;43.992;2023-07-24T10:30:55;99788.25;;;24.36;39.10
69247;BME280;56358;56.328;43.992;2023-07-24T10:35:10;99782.09;;;23.71;40.00
69247;BME280;56358;56.328;43.992;2023-07-24T10:37:11;99707.06;;;23.03;40.08
69247;BME280;56358;56.328;43.992;2023-07-24T10:39:16;99768.97;;;23.80;39.81
69247;BME280;56358;56.328;43.992;2023-07-24T10:41:19;99758.66;;;23.57;40.69